Time,TemperatureF,DewpointF,PressureIn,WindDirection,WindDirectionDegrees,WindSpeedMPH,WindSpeedGustMPH,Humidity,HourlyPrecipIn,Conditions,Clouds,dailyrainin,SoftwareType,DateUTC
2013-06-30 00:00:00,84.9,45.1,29.85,NNE,22,5.3,-999.0,25,-99.99,,,0.00,Acu-Link.com,2013-06-30 06:00:00,
2013-06-30 00:15:00,84.6,44.9,29.84,SSE,157,2.7,-999.0,25,-99.99,,,0.00,Acu-Link.com,2013-06-30 06:15:00,
2013-06-30 00:30:00,85.6,44.6,29.84,SSE,157,3.2,-999.0,24,-99.99,,,0.00,Acu-Link.com,2013-06-30 06:30:00,
2013-06-30 00:45:00,85.5,44.6,29.83,SSE,157,4.7,-999.0,24,-99.99,,,0.00,Acu-Link.com,2013-06-30 06:45:00,
2013-06-30 01:00:00,85.3,44.4,29.83,NNE,22,2.7,-999.0,24,-99.99,,,0.00,Acu-Link.com,2013-06-30 07:00:00,
2013-06-30 01:15:00,84.6,44.9,29.83,West,270,3.7,-999.0,25,-99.99,,,0.00,Acu-Link.com,2013-06-30 07:15:00,
2013-06-30 01:31:00,84.4,44.7,29.83,South,180,2.7,-999.0,25,-99.99,,,0.00,Acu-Link.com,2013-06-30 07:31:00,
2013-06-30 01:46:00,84.9,45.1,29.84,West,270,2.7,-999.0,25,-99.99,,,0.00,Acu-Link.com,2013-06-30 07:46:00,
2013-06-30 02:01:00,84.4,44.7,29.85,East,90,1.7,-999.0,25,-99.99,,,0.00,Acu-Link.com,2013-06-30 08:01:00,
2013-06-30 02:17:00,84.4,44.7,29.85,NE,45,1.7,-999.0,25,-99.99,,,0.00,Acu-Link.com,2013-06-30 08:17:00,
2013-06-30 02:32:00,84.7,45.0,29.86,NNE,22,5.8,-999.0,25,-99.99,,,0.00,Acu-Link.com,2013-06-30 08:32:00,
2013-06-30 02:48:00,85.1,43.1,29.86,NNW,337,5.3,-999.0,23,-99.99,,,0.00,Acu-Link.com,2013-06-30 08:48:00,
2013-06-30 03:03:00,85.5,45.6,29.85,NNE,22,8.3,-999.0,25,-99.99,,,0.00,Acu-Link.com,2013-06-30 09:03:00,
2013-06-30 03:18:00,84.7,48.0,29.84,NE,45,7.3,-999.0,28,-99.99,,,0.00,Acu-Link.com,2013-06-30 09:18:00,
2013-06-30 03:33:00,83.8,49.0,29.84,SE,135,6.3,-999.0,30,-99.99,,,0.00,Acu-Link.com,2013-06-30 09:33:00,
2013-06-30 03:48:00,82.9,49.1,29.84,SSE,157,6.3,-999.0,31,-99.99,,,0.00,Acu-Link.com,2013-06-30 09:48:00,
2013-06-30 04:03:00,81.9,49.1,29.85,East,90,0.0,-999.0,32,-99.99,,,0.00,Acu-Link.com,2013-06-30 10:03:00,
2013-06-30 04:19:00,81.3,48.6,29.85,SSW,202,0.0,-999.0,32,-99.99,,,0.00,Acu-Link.com,2013-06-30 10:19:00,
2013-06-30 04:34:00,80.8,49.8,29.86,ESE,112,3.7,-999.0,34,-99.99,,,0.00,Acu-Link.com,2013-06-30 10:34:00,
2013-06-30 04:49:00,81.0,50.0,29.85,ESE,112,3.7,-999.0,34,-99.99,,,0.00,Acu-Link.com,2013-06-30 10:49:00,
2013-06-30 05:04:00,80.6,50.4,29.84,SSE,157,2.2,-999.0,35,-99.99,,,0.00,Acu-Link.com,2013-06-30 11:04:00,
2013-06-30 05:19:00,80.4,51.0,29.85,NNE,22,4.7,-999.0,36,-99.99,,,0.00,Acu-Link.com,2013-06-30 11:19:00,
2013-06-30 05:34:00,80.2,51.5,29.85,ESE,112,5.3,-999.0,37,-99.99,,,0.00,Acu-Link.com,2013-06-30 11:34:00,
2013-06-30 05:50:00,79.9,51.3,29.86,SE,135,3.7,-999.0,37,-99.99,,,0.00,Acu-Link.com,2013-06-30 11:50:00,
2013-06-30 06:05:00,79.3,51.5,29.86,South,180,2.7,-999.0,38,-99.99,,,0.00,Acu-Link.com,2013-06-30 12:05:00,
2013-06-30 06:20:00,79.5,51.6,29.87,SSE,157,5.8,-999.0,38,-99.99,,,0.00,Acu-Link.com,2013-06-30 12:20:00,
2013-06-30 06:35:00,79.7,51.1,29.86,SE,135,4.7,-999.0,37,-99.99,,,0.00,Acu-Link.com,2013-06-30 12:35:00,
2013-06-30 06:50:00,79.7,51.1,29.87,ESE,112,4.7,-999.0,37,-99.99,,,0.00,Acu-Link.com,2013-06-30 12:50:00,
2013-06-30 07:06:00,80.2,51.5,29.88,ESE,112,5.8,-999.0,37,-99.99,,,0.00,Acu-Link.com,2013-06-30 13:06:00,
2013-06-30 07:21:00,80.1,51.5,29.88,East,90,2.7,-999.0,37,-99.99,,,0.00,Acu-Link.com,2013-06-30 13:21:00,
2013-06-30 07:36:00,80.1,51.5,29.89,NNE,22,3.2,-999.0,37,-99.99,,,0.00,Acu-Link.com,2013-06-30 13:36:00,
2013-06-30 07:51:00,80.6,51.2,29.90,East,90,5.8,-999.0,36,-99.99,,,0.00,Acu-Link.com,2013-06-30 13:51:00,
2013-06-30 08:06:00,82.0,50.8,29.90,East,90,6.3,-999.0,34,-99.99,,,0.00,Acu-Link.com,2013-06-30 14:06:00,
2013-06-30 08:22:00,86.0,50.9,29.90,ENE,67,7.3,-999.0,30,-99.99,,,0.00,Acu-Link.com,2013-06-30 14:22:00,
2013-06-30 08:37:00,84.7,49.8,29.90,ESE,112,11.4,-999.0,30,-99.99,,,0.00,Acu-Link.com,2013-06-30 14:37:00,
2013-06-30 08:52:00,85.5,50.5,29.90,East,90,7.3,-999.0,30,-99.99,,,0.00,Acu-Link.com,2013-06-30 14:52:00,
2013-06-30 09:07:00,83.3,50.3,29.89,SSE,157,5.3,-999.0,32,-99.99,,,0.00,Acu-Link.com,2013-06-30 15:07:00,
2013-06-30 09:22:00,82.9,50.0,29.89,ENE,67,6.8,-999.0,32,-99.99,,,0.00,Acu-Link.com,2013-06-30 15:22:00,
2013-06-30 09:37:00,83.7,50.7,29.90,East,90,7.8,-999.0,32,-99.99,,,0.00,Acu-Link.com,2013-06-30 15:37:00,
2013-06-30 09:52:00,83.8,49.9,29.90,ENE,67,7.8,-999.0,31,-99.99,,,0.00,Acu-Link.com,2013-06-30 15:52:00,
2013-06-30 10:08:00,84.9,50.0,29.89,NE,45,4.7,-999.0,30,-99.99,,,0.00,Acu-Link.com,2013-06-30 16:08:00,
2013-06-30 10:23:00,86.7,50.6,29.89,ESE,112,7.8,-999.0,29,-99.99,,,0.00,Acu-Link.com,2013-06-30 16:23:00,
2013-06-30 10:38:00,86.0,50.0,29.88,ENE,67,7.3,-999.0,29,-99.99,,,0.00,Acu-Link.com,2013-06-30 16:38:00,
2013-06-30 10:53:00,86.5,50.4,29.88,ESE,112,4.7,-999.0,29,-99.99,,,0.00,Acu-Link.com,2013-06-30 16:53:00,
2013-06-30 11:09:00,86.5,50.4,29.88,ENE,67,6.3,-999.0,29,-99.99,,,0.00,Acu-Link.com,2013-06-30 17:09:00,
2013-06-30 11:24:00,86.4,50.4,29.89,ESE,112,6.8,-999.0,29,-99.99,,,0.00,Acu-Link.com,2013-06-30 17:24:00,
2013-06-30 11:39:00,86.9,49.8,29.87,East,90,5.8,-999.0,28,-99.99,,,0.00,Acu-Link.com,2013-06-30 17:39:00,
2013-06-30 11:55:00,87.3,50.2,29.86,ESE,112,8.3,-999.0,28,-99.99,,,0.00,Acu-Link.com,2013-06-30 17:55:00,
2013-06-30 12:10:00,89.1,50.7,29.87,ESE,112,5.3,-999.0,27,-99.99,,,0.00,Acu-Link.com,2013-06-30 18:10:00,
2013-06-30 12:25:00,91.6,49.7,29.85,SE,135,6.3,-999.0,24,-99.99,,,0.00,Acu-Link.com,2013-06-30 18:25:00,
2013-06-30 12:40:00,93.2,49.8,29.86,East,90,9.4,-999.0,23,-99.99,,,0.00,Acu-Link.com,2013-06-30 18:40:00,
2013-06-30 12:55:00,93.9,49.2,29.84,SE,135,7.8,-999.0,22,-99.99,,,0.00,Acu-Link.com,2013-06-30 18:55:00,
2013-06-30 13:11:00,95.9,48.3,29.84,ESE,112,9.9,-999.0,20,-99.99,,,0.00,Acu-Link.com,2013-06-30 19:11:00,
2013-06-30 13:26:00,96.1,48.5,29.83,SSE,157,8.3,-999.0,20,-99.99,,,0.00,Acu-Link.com,2013-06-30 19:26:00,
2013-06-30 13:41:00,95.7,48.2,29.82,ESE,112,6.3,-999.0,20,-99.99,,,0.00,Acu-Link.com,2013-06-30 19:41:00,
2013-06-30 13:57:00,95.7,48.2,29.82,ESE,112,6.8,-999.0,20,-99.99,,,0.00,Acu-Link.com,2013-06-30 19:57:00,
2013-06-30 14:12:00,96.8,47.7,29.82,NE,45,5.8,-999.0,19,-99.99,,,0.00,Acu-Link.com,2013-06-30 20:12:00,
2013-06-30 14:27:00,97.9,50.0,29.81,NE,45,2.2,-999.0,20,-99.99,,,0.00,Acu-Link.com,2013-06-30 20:27:00,
2013-06-30 14:43:00,96.6,47.5,29.81,SE,135,5.8,-999.0,19,-99.99,,,0.00,Acu-Link.com,2013-06-30 20:43:00,
2013-06-30 14:58:00,97.3,48.1,29.79,ESE,112,8.3,-999.0,19,-99.99,,,0.00,Acu-Link.com,2013-06-30 20:58:00,
2013-06-30 15:13:00,99.5,48.4,29.78,ESE,112,6.3,-999.0,18,-99.99,,,0.00,Acu-Link.com,2013-06-30 21:13:00,
2013-06-30 15:29:00,99.0,48.0,29.79,West,270,8.3,-999.0,18,-99.99,,,0.00,Acu-Link.com,2013-06-30 21:29:00,
2013-06-30 15:44:00,98.6,47.7,29.76,South,180,6.3,-999.0,18,-99.99,,,0.00,Acu-Link.com,2013-06-30 21:44:00,
2013-06-30 15:59:00,98.6,47.7,29.77,SE,135,8.3,-999.0,18,-99.99,,,0.00,Acu-Link.com,2013-06-30 21:59:00,
2013-06-30 16:14:00,99.9,47.2,29.75,ESE,112,7.8,-999.0,17,-99.99,,,0.00,Acu-Link.com,2013-06-30 22:14:00,
2013-06-30 16:29:00,99.9,47.2,29.76,ESE,112,8.3,-999.0,17,-99.99,,,0.00,Acu-Link.com,2013-06-30 22:29:00,
2013-06-30 16:44:00,99.3,46.7,29.74,ESE,112,8.3,-999.0,17,-99.99,,,0.00,Acu-Link.com,2013-06-30 22:44:00,
2013-06-30 17:00:00,98.4,47.5,29.73,East,90,5.8,-999.0,18,-99.99,,,0.00,Acu-Link.com,2013-06-30 23:00:00,
2013-06-30 17:15:00,98.4,47.5,29.73,SE,135,3.7,-999.0,18,-99.99,,,0.00,Acu-Link.com,2013-06-30 23:15:00,
2013-06-30 17:30:00,98.2,47.4,29.73,SSE,157,11.4,-999.0,18,-99.99,,,0.00,Acu-Link.com,2013-06-30 23:30:00,
2013-06-30 17:45:00,98.1,47.3,29.72,ESE,112,13.0,-999.0,18,-99.99,,,0.00,Acu-Link.com,2013-06-30 23:45:00,
2013-06-30 18:00:00,97.5,46.8,29.73,ESE,112,6.3,-999.0,18,-99.99,,,0.00,Acu-Link.com,2013-07-01 00:00:00,
2013-06-30 18:15:00,97.5,46.8,29.72,SSE,157,8.9,-999.0,18,-99.99,,,0.00,Acu-Link.com,2013-07-01 00:15:00,
2013-06-30 18:31:00,96.6,46.1,29.73,SSE,157,8.9,-999.0,18,-99.99,,,0.00,Acu-Link.com,2013-07-01 00:31:00,
2013-06-30 18:46:00,95.9,47.0,29.73,East,90,12.5,-999.0,19,-99.99,,,0.00,Acu-Link.com,2013-07-01 00:46:00,
2013-06-30 19:01:00,95.7,46.8,29.74,ESE,112,11.9,-999.0,19,-99.99,,,0.00,Acu-Link.com,2013-07-01 01:01:00,
2013-06-30 19:16:00,94.5,47.2,29.73,ESE,112,5.3,-999.0,20,-99.99,,,0.00,Acu-Link.com,2013-07-01 01:16:00,
2013-06-30 19:31:00,93.6,46.4,29.75,East,90,7.8,-999.0,20,-99.99,,,0.00,Acu-Link.com,2013-07-01 01:31:00,
2013-06-30 19:46:00,93.0,46.0,29.76,SSE,157,10.9,-999.0,20,-99.99,,,0.00,Acu-Link.com,2013-07-01 01:46:00,
2013-06-30 20:01:00,92.3,46.7,29.75,SE,135,8.9,-999.0,21,-99.99,,,0.00,Acu-Link.com,2013-07-01 02:01:00,
2013-06-30 20:17:00,91.4,47.2,29.76,ESE,112,8.3,-999.0,22,-99.99,,,0.00,Acu-Link.com,2013-07-01 02:17:00,
2013-06-30 20:32:00,90.9,46.8,29.77,East,90,8.9,-999.0,22,-99.99,,,0.00,Acu-Link.com,2013-07-01 02:32:00,
2013-06-30 20:47:00,90.3,47.4,29.78,ESE,112,5.8,-999.0,23,-99.99,,,0.00,Acu-Link.com,2013-07-01 02:47:00,
2013-06-30 21:02:00,89.8,48.2,29.78,East,90,10.9,-999.0,24,-99.99,,,0.00,Acu-Link.com,2013-07-01 03:02:00,
2013-06-30 21:17:00,89.2,48.7,29.78,ESE,112,11.4,-999.0,25,-99.99,,,0.00,Acu-Link.com,2013-07-01 03:17:00,
2013-06-30 21:32:00,88.7,49.4,29.78,ESE,112,13.0,-999.0,26,-99.99,,,0.00,Acu-Link.com,2013-07-01 03:32:00,
2013-06-30 21:47:00,88.0,49.8,29.80,ESE,112,12.5,-999.0,27,-99.99,,,0.00,Acu-Link.com,2013-07-01 03:47:00,
2013-06-30 22:02:00,87.4,50.3,29.81,East,90,6.8,-999.0,28,-99.99,,,0.00,Acu-Link.com,2013-07-01 04:02:00,
2013-06-30 22:17:00,87.3,50.2,29.85,NNE,22,19.1,-999.0,28,-99.99,,,0.00,Acu-Link.com,2013-07-01 04:17:00,
2013-06-30 22:32:00,82.6,54.4,29.87,North,0,7.3,-999.0,38,-99.99,,,0.00,Acu-Link.com,2013-07-01 04:32:00,
2013-06-30 22:48:00,82.0,56.0,29.88,NNW,337,8.3,-999.0,41,-99.99,,,0.00,Acu-Link.com,2013-07-01 04:48:00,
2013-06-30 23:03:00,79.9,57.2,29.90,NE,45,10.9,-999.0,46,-99.99,,,0.00,Acu-Link.com,2013-07-01 05:03:00,
2013-06-30 23:18:00,78.6,58.9,29.90,North,0,11.4,-999.0,51,-99.99,,,0.00,Acu-Link.com,2013-07-01 05:18:00,
2013-06-30 23:33:00,75.4,58.6,29.89,NE,45,16.6,-999.0,56,-99.99,,,0.00,Acu-Link.com,2013-07-01 05:33:00,
2013-06-30 23:48:00,77.2,57.1,29.88,NE,45,14.0,-999.0,50,-99.99,,,0.01,Acu-Link.com,2013-07-01 05:48:00,